• Join FlightAware (Why Join?)
  • Login
  • US Flag 
10:15PM EDT


 

Airport Tracker/Info


-or-


 

Live Flight TrackerFlight Track Log ✈ SWA1742 ✈ 06-Jan-2014 ✈ KMCI - KDAL

Flight Track Log - Related Links

Times and Time Zones

All times are in EST time to prevent confusion due to time zone crossing. See the SWA1742 flight status page for this flight to view local times or setup timezone preferences in your user account.

Time Position Orientation Groundspeed Altitude Reporting Facility
EST Latitude Longitude Course Direction KTS MPH feet Rate Location/Type
12:58AM 39.2667 -94.7333 180° South 166 191 3,500  Level Kansas City TRACON
01:00AM 39.2081 -94.7508 193° South 233 268 6,600 3,180 Climbing Kansas City Center
01:01AM 39.1322 -94.7797 196° South 295 339 10,700 4,080 Climbing Kansas City Center
01:02AM 39.0275 -94.8192 196° South 349 402 14,700 3,420 Climbing Kansas City Center
01:03AM 38.9186 -94.8575 195° South 415 478 17,600 3,000 Climbing Kansas City Center
01:04AM 38.8025 -94.8994 196° South 445 512 20,900 3,540 Climbing Kansas City Center
01:05AM 38.6875 -94.9408 196° South 447 514 24,900 3,240 Climbing Kansas City Center
01:06AM 38.5539 -94.9886 196° South 445 512 27,500 2,580 Climbing Kansas City Center
01:07AM 38.4314 -95.0336 196° South 471 542 30,200 2,520 Climbing Kansas City Center
01:08AM 38.3069 -95.0689 193° South 477 549 32,700 2,520 Climbing Kansas City Center
01:09AM 38.1592 -95.1072 192° South 481 554 35,300 1,620 Climbing Kansas City Center
01:10AM 38.0333 -95.1356 190° South 479 551 36,000 300 Climbing Kansas City Center
01:11AM 37.9189 -95.1658 192° South 476 548 36,000  Level Kansas City Center
01:12AM 37.7900 -95.2031 193° South 475 547 36,000  Level Kansas City Center
01:13AM 37.6608 -95.2347 191° South 472 543 36,000  Level Kansas City Center
01:14AM 37.5325 -95.2669 191° South 469 540 36,000  Level Kansas City Center
01:15AM 37.4056 -95.2989 191° South 465 535 36,000  Level Kansas City Center
01:16AM 37.2794 -95.3300 191° South 462 532 36,000  Level Kansas City Center
01:17AM 37.1281 -95.3692 192° South 462 532 36,000  Level Kansas City Center
01:18AM 37.0031 -95.4008 191° South 458 527 36,000  Level Kansas City Center
01:19AM 36.8800 -95.4317 191° South 453 521 36,000 -420 Level Kansas City Center
01:20AM 36.7589 -95.4611 191° South 445 512 35,200 -840 Descending Kansas City Center
01:21AM 36.6367 -95.4922 192° South 446 513 34,300 -600 Descending Kansas City Center
01:22AM 36.5153 -95.5219 191° South 451 519 34,000 -180 Descending Kansas City Center
01:23AM 36.3908 -95.5517 191° South 453 521 34,000  Level Kansas City Center
01:24AM 36.2694 -95.5836 192° South 450 518 34,000  Level Kansas City Center
01:25AM 36.1458 -95.6139 191° South 451 519 34,000  Level Kansas City Center
01:26AM 36.0289 -95.6431 191° South 449 517 34,000  Level Kansas City Center
01:27AM 35.9058 -95.6728 191° South 449 517 34,000  Level Kansas City Center
01:28AM 35.7844 -95.7058 192° South 447 514 34,000  Level Kansas City Center
01:29AM 35.6700 -95.7556 199° South 438 504 34,000  Level Kansas City Center
01:29AM 35.5781 -95.7931 198° South 434 499 34,000  Level Fort Worth Center
01:31AM 35.4636 -95.8389 198° South 431 496 34,000  Level Fort Worth Center
01:32AM 35.3419 -95.8867 198° South 434 499 34,000  Level Fort Worth Center
01:33AM 35.2286 -95.9322 198° South 430 495 34,000  Level Fort Worth Center
01:34AM 35.1144 -95.9758 197° South 428 493 34,000  Level Fort Worth Center
01:35AM 34.9978 -96.0219 198° South 435 501 34,000  Level Fort Worth Center
01:36AM 34.8822 -96.0681 198° South 437 503 34,000  Level Fort Worth Center
01:37AM 34.7675 -96.1142 198° South 434 499 34,000  Level Fort Worth Center
01:38AM 34.6539 -96.1583 198° South 429 494 34,000  Level Fort Worth Center
01:39AM 34.5378 -96.2053 198° South 437 503 34,000  Level Fort Worth Center
01:40AM 34.4247 -96.2472 197° South 427 491 34,000  Level Fort Worth Center
01:41AM 34.3125 -96.2931 199° South 426 490 34,000 -780 Level Fort Worth Center
01:42AM 34.2003 -96.3361 198° South 423 487 32,500 -2,520 Descending Fort Worth Center
01:43AM 34.0939 -96.3769 198° South 427 491 29,000 -3,360 Descending Fort Worth Center
01:44AM 33.9808 -96.4200 198° South 426 490 25,800 -3,000 Descending Fort Worth Center
01:45AM 33.8719 -96.4625 198° South 413 475 23,000 -2,880 Descending Fort Worth Center
01:46AM 33.7556 -96.5061 197° South 398 458 20,000 -2,520 Descending Fort Worth Center
01:47AM 33.6542 -96.5453 198° South 383 441 18,000 -3,120 Descending Fort Worth Center
01:48AM 33.5481 -96.5944 201° Southwest 378 435 13,800 -3,900 Descending Fort Worth Center
01:49AM 33.4492 -96.6453 203° Southwest 385 443 10,200 -1,980 Descending Fort Worth Center
01:50AM 33.3617 -96.6892 203° Southwest 330 380 9,900 -960 Descending Fort Worth Center
01:51AM 33.2875 -96.7267 203° Southwest 295 339 8,300 -1,560 Descending Fort Worth Center
01:52AM 33.2128 -96.7644 203° Southwest 292 336 6,800 -1,440 Descending Fort Worth Center
01:53AM 33.1411 -96.7994 202° Southwest 281 323 5,400 -1,440 Descending Fort Worth Center
01:54AM 33.0667 -96.8333 201° Southwest 262 302 4,000 -960 Descending Dallas / Fort Worth TRACON
01:55AM 33.0167 -96.8667 209° Southwest 234 269 3,500 -420 Descending Dallas / Fort Worth TRACON
01:56AM 32.9500 -96.9000 203° Southwest 199 229 3,200 -600 Descending Dallas / Fort Worth TRACON
01:57AM 32.9167 -96.9167 203° Southwest 147 169 2,400 -900 Descending Dallas / Fort Worth TRACON
01:58AM 32.8833 -96.9000 157° South 127 146 1,400 -600 Descending Dallas / Fort Worth TRACON
02:00AM 32.8364 -96.8456 136° Southeast 125 144 700 -360 Descending Fort Worth Center
02:02AM 32.8333 -96.8500 203° Southwest  Level FlightAware Approximate